SBSM/RIA METAR and TAF weather

Enter ICAO airport designator
Station Type Date Time Source
SBSM METAR 2021/09/20 03:00 UTC NOAA

SBSM 200300Z 10007KT 2500 BR OVC005 19/19 Q1009


Station Type Date Time Source
SBSM Decoded METAR 2021/09/20 03:00 UTC NOAA

Santa Maria Aero-Porto , Brazil (SBSM) 29-43S 053-42W
Sep 19, 2021 - 11:00 PM EDT / 2021.09.20 0300 UTC
Wind: from the E (100 degrees) at 8 MPH (7 KT):0
Visibility: 1 mile(s):0
Sky conditions: overcast
Weather: mist
Temperature: 66 F (19 C)
Dew Point: 66 F (19 C)
Relative Humidity: 100%
Pressure (altimeter): 29.80 in. Hg (1009 hPa)
ob: SBSM 200300Z 10007KT 2500 BR OVC005 19/19 Q1009
cycle: 3

Station Type Date Time Source
SBSM TAF 2021/09/17 18:27 UTC NOAA

TAF SBSM 171500Z 1718/1806 10012KT 8000 BKN010 FEW040TCU TX18/1718Z TN16/1806Z
TEMPO 1718/1721 4500 TSRA BR BKN015 FEW040CB
BECMG 1722/1724 9999 NSW BKN010
BECMG 1803/1805 BKN006
RMK PEN

Example: see airport list